sensor_id;sensor_type;location;lat;lon;timestamp;temperature;humidity
66598;DHT22;57424;53.128;6.406;2022-07-19T00:00:48;24.30;53.50
66598;DHT22;57424;53.128;6.406;2022-07-19T00:03:14;24.30;53.50
66598;DHT22;57424;53.128;6.406;2022-07-19T00:05:40;24.30;53.50
66598;DHT22;57424;53.128;6.406;2022-07-19T00:08:06;24.30;53.60
66598;DHT22;57424;53.128;6.406;2022-07-19T00:10:31;24.30;53.60
66598;DHT22;57424;53.128;6.406;2022-07-19T00:12:57;24.30;53.70
66598;DHT22;57424;53.128;6.406;2022-07-19T00:15:23;24.30;53.60
66598;DHT22;57424;53.128;6.406;2022-07-19T00:17:49;24.30;53.60
66598;DHT22;57424;53.128;6.406;2022-07-19T00:20:17;24.30;53.60
66598;DHT22;57424;53.128;6.406;2022-07-19T00:22:43;24.20;53.60
66598;DHT22;57424;53.128;6.406;2022-07-19T00:25:09;24.30;53.70
66598;DHT22;57424;53.128;6.406;2022-07-19T00:27:35;24.20;53.60
66598;DHT22;57424;53.128;6.406;2022-07-19T00:30:01;24.20;53.60
66598;DHT22;57424;53.128;6.406;2022-07-19T00:32:26;24.20;53.60
66598;DHT22;57424;53.128;6.406;2022-07-19T00:34:52;24.20;53.60
66598;DHT22;57424;53.128;6.406;2022-07-19T00:37:18;24.20;53.60
66598;DHT22;57424;53.128;6.406;2022-07-19T00:39:43;24.20;53.60
66598;DHT22;57424;53.128;6.406;2022-07-19T00:42:09;24.20;53.60
66598;DHT22;57424;53.128;6.406;2022-07-19T00:44:34;24.20;53.70
66598;DHT22;57424;53.128;6.406;2022-07-19T00:47:01;24.10;53.60
66598;DHT22;57424;53.128;6.406;2022-07-19T00:49:27;24.20;53.60
66598;DHT22;57424;53.128;6.406;2022-07-19T00:51:53;24.20;53.70
66598;DHT22;57424;53.128;6.406;2022-07-19T00:54:20;24.20;53.70
66598;DHT22;57424;53.128;6.406;2022-07-19T00:56:48;24.10;53.60
66598;DHT22;57424;53.128;6.406;2022-07-19T00:59:15;24.10;53.60
66598;DHT22;57424;53.128;6.406;2022-07-19T01:01:41;24.10;53.60
66598;DHT22;57424;53.128;6.406;2022-07-19T01:04:10;24.10;53.60
66598;DHT22;57424;53.128;6.406;2022-07-19T01:06:36;24.10;53.60
66598;DHT22;57424;53.128;6.406;2022-07-19T01:09:02;24.10;53.70
66598;DHT22;57424;53.128;6.406;2022-07-19T01:11:28;24.10;53.70
66598;DHT22;57424;53.128;6.406;2022-07-19T01:13:54;24.10;53.70
66598;DHT22;57424;53.128;6.406;2022-07-19T01:16:19;24.10;53.70
66598;DHT22;57424;53.128;6.406;2022-07-19T01:18:45;24.10;53.70
66598;DHT22;57424;53.128;6.406;2022-07-19T01:21:21;24.10;53.70
66598;DHT22;57424;53.128;6.406;2022-07-19T01:23:48;24.00;53.70
66598;DHT22;57424;53.128;6.406;2022-07-19T01:26:13;24.00;53.70
66598;DHT22;57424;53.128;6.406;2022-07-19T01:28:39;24.00;53.70
66598;DHT22;57424;53.128;6.406;2022-07-19T01:31:05;24.00;53.70
66598;DHT22;57424;53.128;6.406;2022-07-19T01:33:31;24.00;53.70
66598;DHT22;57424;53.128;6.406;2022-07-19T01:35:56;24.00;53.70
66598;DHT22;57424;53.128;6.406;2022-07-19T01:38:22;24.00;53.70
66598;DHT22;57424;53.128;6.406;2022-07-19T01:40:47;24.00;53.70
66598;DHT22;57424;53.128;6.406;2022-07-19T01:43:13;24.00;53.70
66598;DHT22;57424;53.128;6.406;2022-07-19T01:45:38;24.00;53.70
66598;DHT22;57424;53.128;6.406;2022-07-19T01:48:05;24.00;53.70
66598;DHT22;57424;53.128;6.406;2022-07-19T01:50:31;24.00;53.70
66598;DHT22;57424;53.128;6.406;2022-07-19T01:52:56;24.00;53.70
66598;DHT22;57424;53.128;6.406;2022-07-19T01:55:22;24.00;53.70
66598;DHT22;57424;53.128;6.406;2022-07-19T01:57:49;24.00;53.70
66598;DHT22;57424;53.128;6.406;2022-07-19T02:00:15;24.00;53.70
66598;DHT22;57424;53.128;6.406;2022-07-19T02:02:40;24.00;53.70
66598;DHT22;57424;53.128;6.406;2022-07-19T02:05:06;24.00;53.70
66598;DHT22;57424;53.128;6.406;2022-07-19T02:07:32;24.00;53.70
66598;DHT22;57424;53.128;6.406;2022-07-19T02:09:59;23.90;53.60
66598;DHT22;57424;53.128;6.406;2022-07-19T02:12:25;23.90;53.60
66598;DHT22;57424;53.128;6.406;2022-07-19T02:14:51;23.90;53.60
66598;DHT22;57424;53.128;6.406;2022-07-19T02:17:17;23.90;53.60
66598;DHT22;57424;53.128;6.406;2022-07-19T02:19:42;23.90;53.70
66598;DHT22;57424;53.128;6.406;2022-07-19T02:22:08;23.90;53.70
66598;DHT22;57424;53.128;6.406;2022-07-19T02:24:33;23.90;53.60
66598;DHT22;57424;53.128;6.406;2022-07-19T02:26:59;23.90;53.60
66598;DHT22;57424;53.128;6.406;2022-07-19T02:29:24;23.90;53.60
66598;DHT22;57424;53.128;6.406;2022-07-19T02:31:50;23.90;53.70
66598;DHT22;57424;53.128;6.406;2022-07-19T02:34:15;23.90;53.60
66598;DHT22;57424;53.128;6.406;2022-07-19T02:36:41;23.90;53.60
66598;DHT22;57424;53.128;6.406;2022-07-19T02:39:06;23.90;53.60
66598;DHT22;57424;53.128;6.406;2022-07-19T02:41:32;23.90;53.60
66598;DHT22;57424;53.128;6.406;2022-07-19T02:43:57;23.80;53.60
66598;DHT22;57424;53.128;6.406;2022-07-19T02:46:23;23.90;53.60
66598;DHT22;57424;53.128;6.406;2022-07-19T02:48:49;23.80;53.60
66598;DHT22;57424;53.128;6.406;2022-07-19T02:51:14;23.80;53.60
66598;DHT22;57424;53.128;6.406;2022-07-19T02:53:40;23.80;53.60
66598;DHT22;57424;53.128;6.406;2022-07-19T02:56:06;23.80;53.70
66598;DHT22;57424;53.128;6.406;2022-07-19T02:58:31;23.80;53.70
66598;DHT22;57424;53.128;6.406;2022-07-19T03:00:57;23.80;53.60
66598;DHT22;57424;53.128;6.406;2022-07-19T03:03:22;23.80;53.70
66598;DHT22;57424;53.128;6.406;2022-07-19T03:06:06;23.80;53.70
66598;DHT22;57424;53.128;6.406;2022-07-19T03:08:32;23.80;53.70
66598;DHT22;57424;53.128;6.406;2022-07-19T03:10:57;23.80;53.70
66598;DHT22;57424;53.128;6.406;2022-07-19T03:13:23;23.70;53.60
66598;DHT22;57424;53.128;6.406;2022-07-19T03:15:48;23.80;53.70
66598;DHT22;57424;53.128;6.406;2022-07-19T03:18:14;23.70;53.70
66598;DHT22;57424;53.128;6.406;2022-07-19T03:20:40;23.70;53.70
66598;DHT22;57424;53.128;6.406;2022-07-19T03:23:05;23.70;53.70
66598;DHT22;57424;53.128;6.406;2022-07-19T03:25:31;23.70;53.70
66598;DHT22;57424;53.128;6.406;2022-07-19T03:27:56;23.70;53.70
66598;DHT22;57424;53.128;6.406;2022-07-19T03:30:22;23.70;53.70
66598;DHT22;57424;53.128;6.406;2022-07-19T03:32:48;23.70;53.70
66598;DHT22;57424;53.128;6.406;2022-07-19T03:35:14;23.70;53.70
66598;DHT22;57424;53.128;6.406;2022-07-19T03:37:40;23.70;53.70
66598;DHT22;57424;53.128;6.406;2022-07-19T03:40:06;23.70;53.70
66598;DHT22;57424;53.128;6.406;2022-07-19T03:42:32;23.70;53.70
66598;DHT22;57424;53.128;6.406;2022-07-19T03:44:58;23.70;53.70
66598;DHT22;57424;53.128;6.406;2022-07-19T03:47:24;23.70;53.70
66598;DHT22;57424;53.128;6.406;2022-07-19T03:49:49;23.70;53.70
66598;DHT22;57424;53.128;6.406;2022-07-19T03:52:15;23.70;53.70
66598;DHT22;57424;53.128;6.406;2022-07-19T03:54:41;23.70;53.70
66598;DHT22;57424;53.128;6.406;2022-07-19T03:57:06;23.70;53.80
66598;DHT22;57424;53.128;6.406;2022-07-19T03:59:32;23.70;53.80
66598;DHT22;57424;53.128;6.406;2022-07-19T04:01:58;23.70;53.80
66598;DHT22;57424;53.128;6.406;2022-07-19T04:04:23;23.70;53.80
66598;DHT22;57424;53.128;6.406;2022-07-19T04:06:49;23.60;53.70
66598;DHT22;57424;53.128;6.406;2022-07-19T04:09:14;23.60;53.80
66598;DHT22;57424;53.128;6.406;2022-07-19T04:11:40;23.60;53.70
66598;DHT22;57424;53.128;6.406;2022-07-19T04:14:05;23.60;53.70
66598;DHT22;57424;53.128;6.406;2022-07-19T04:16:31;23.60;53.70
66598;DHT22;57424;53.128;6.406;2022-07-19T04:18:57;23.60;53.70
66598;DHT22;57424;53.128;6.406;2022-07-19T04:21:22;23.60;53.70
66598;DHT22;57424;53.128;6.406;2022-07-19T04:23:48;23.60;53.70
66598;DHT22;57424;53.128;6.406;2022-07-19T04:26:13;23.60;53.70
66598;DHT22;57424;53.128;6.406;2022-07-19T04:28:39;23.60;53.70
66598;DHT22;57424;53.128;6.406;2022-07-19T04:31:05;23.60;54.40
66598;DHT22;57424;53.128;6.406;2022-07-19T04:33:31;23.60;53.70
66598;DHT22;57424;53.128;6.406;2022-07-19T04:35:56;23.60;53.70
66598;DHT22;57424;53.128;6.406;2022-07-19T04:38:22;23.60;53.70
66598;DHT22;57424;53.128;6.406;2022-07-19T04:40:49;23.60;53.70
66598;DHT22;57424;53.128;6.406;2022-07-19T04:43:16;23.60;53.70
66598;DHT22;57424;53.128;6.406;2022-07-19T04:45:41;23.60;53.70
66598;DHT22;57424;53.128;6.406;2022-07-19T04:48:07;23.60;53.70
66598;DHT22;57424;53.128;6.406;2022-07-19T04:50:33;23.60;53.70
66598;DHT22;57424;53.128;6.406;2022-07-19T04:52:58;23.60;53.70
66598;DHT22;57424;53.128;6.406;2022-07-19T04:55:24;23.50;53.60
66598;DHT22;57424;53.128;6.406;2022-07-19T04:57:50;23.60;53.70
66598;DHT22;57424;53.128;6.406;2022-07-19T05:00:16;23.50;53.70
66598;DHT22;57424;53.128;6.406;2022-07-19T05:02:41;23.50;53.60
66598;DHT22;57424;53.128;6.406;2022-07-19T05:05:07;23.50;53.60
66598;DHT22;57424;53.128;6.406;2022-07-19T05:07:33;23.50;53.60
66598;DHT22;57424;53.128;6.406;2022-07-19T05:09:59;23.50;53.60
66598;DHT22;57424;53.128;6.406;2022-07-19T05:12:24;23.50;53.60
66598;DHT22;57424;53.128;6.406;2022-07-19T05:14:50;23.50;53.60
66598;DHT22;57424;53.128;6.406;2022-07-19T05:17:15;23.50;53.60
66598;DHT22;57424;53.128;6.406;2022-07-19T05:19:41;23.50;53.60
66598;DHT22;57424;53.128;6.406;2022-07-19T05:22:07;23.50;53.60
66598;DHT22;57424;53.128;6.406;2022-07-19T05:24:32;23.50;53.60
66598;DHT22;57424;53.128;6.406;2022-07-19T05:26:58;23.50;53.60
66598;DHT22;57424;53.128;6.406;2022-07-19T05:29:24;23.50;53.60
66598;DHT22;57424;53.128;6.406;2022-07-19T05:31:49;23.50;53.60
66598;DHT22;57424;53.128;6.406;2022-07-19T05:34:15;23.50;53.60
66598;DHT22;57424;53.128;6.406;2022-07-19T05:36:41;23.50;53.60
66598;DHT22;57424;53.128;6.406;2022-07-19T05:39:07;23.50;53.60
66598;DHT22;57424;53.128;6.406;2022-07-19T05:41:33;23.50;53.60
66598;DHT22;57424;53.128;6.406;2022-07-19T05:43:58;23.50;53.60
66598;DHT22;57424;53.128;6.406;2022-07-19T05:46:24;23.50;53.60
66598;DHT22;57424;53.128;6.406;2022-07-19T05:48:50;23.60;53.60
66598;DHT22;57424;53.128;6.406;2022-07-19T05:51:15;23.50;53.60
66598;DHT22;57424;53.128;6.406;2022-07-19T05:53:41;23.60;53.60
66598;DHT22;57424;53.128;6.406;2022-07-19T05:56:08;23.50;53.60
66598;DHT22;57424;53.128;6.406;2022-07-19T05:58:33;23.50;53.60
66598;DHT22;57424;53.128;6.406;2022-07-19T06:00:59;23.50;53.60
66598;DHT22;57424;53.128;6.406;2022-07-19T06:03:47;23.50;53.60
66598;DHT22;57424;53.128;6.406;2022-07-19T06:06:13;23.50;53.60
66598;DHT22;57424;53.128;6.406;2022-07-19T06:08:39;23.50;53.60
66598;DHT22;57424;53.128;6.406;2022-07-19T06:11:05;23.50;53.60
66598;DHT22;57424;53.128;6.406;2022-07-19T06:13:31;23.50;53.60
66598;DHT22;57424;53.128;6.406;2022-07-19T06:15:56;23.50;53.60
66598;DHT22;57424;53.128;6.406;2022-07-19T06:18:22;23.50;53.60
66598;DHT22;57424;53.128;6.406;2022-07-19T06:20:48;23.50;53.80
66598;DHT22;57424;53.128;6.406;2022-07-19T06:23:13;23.60;54.10
66598;DHT22;57424;53.128;6.406;2022-07-19T06:25:39;23.60;54.20
66598;DHT22;57424;53.128;6.406;2022-07-19T06:28:04;23.60;54.40
66598;DHT22;57424;53.128;6.406;2022-07-19T06:30:30;23.60;54.30
66598;DHT22;57424;53.128;6.406;2022-07-19T06:32:56;23.60;54.20
66598;DHT22;57424;53.128;6.406;2022-07-19T06:35:21;23.60;54.70
66598;DHT22;57424;53.128;6.406;2022-07-19T06:37:47;23.60;54.00
66598;DHT22;57424;53.128;6.406;2022-07-19T06:40:12;23.70;54.10
66598;DHT22;57424;53.128;6.406;2022-07-19T06:42:38;23.70;54.10
66598;DHT22;57424;53.128;6.406;2022-07-19T06:45:04;23.70;54.00
66598;DHT22;57424;53.128;6.406;2022-07-19T06:47:31;23.70;54.10
66598;DHT22;57424;53.128;6.406;2022-07-19T06:50:00;23.70;54.20
66598;DHT22;57424;53.128;6.406;2022-07-19T06:52:26;23.70;54.20
66598;DHT22;57424;53.128;6.406;2022-07-19T06:54:52;23.70;54.20
66598;DHT22;57424;53.128;6.406;2022-07-19T06:57:18;23.70;54.20
66598;DHT22;57424;53.128;6.406;2022-07-19T06:59:43;23.70;54.20
66598;DHT22;57424;53.128;6.406;2022-07-19T07:02:09;23.70;54.10
66598;DHT22;57424;53.128;6.406;2022-07-19T07:04:34;23.70;54.10
66598;DHT22;57424;53.128;6.406;2022-07-19T07:07:00;23.70;54.10
66598;DHT22;57424;53.128;6.406;2022-07-19T07:09:26;23.70;54.10
66598;DHT22;57424;53.128;6.406;2022-07-19T07:11:51;23.70;54.20
66598;DHT22;57424;53.128;6.406;2022-07-19T07:14:18;23.70;54.20
66598;DHT22;57424;53.128;6.406;2022-07-19T07:16:43;23.70;54.20
66598;DHT22;57424;53.128;6.406;2022-07-19T07:19:09;23.80;54.30
66598;DHT22;57424;53.128;6.406;2022-07-19T07:21:34;23.80;54.30
66598;DHT22;57424;53.128;6.406;2022-07-19T07:24:04;23.80;54.50
66598;DHT22;57424;53.128;6.406;2022-07-19T07:26:31;23.80;54.80
66598;DHT22;57424;53.128;6.406;2022-07-19T07:28:57;23.80;55.00
66598;DHT22;57424;53.128;6.406;2022-07-19T07:31:23;23.80;55.00
66598;DHT22;57424;53.128;6.406;2022-07-19T07:33:49;23.80;55.10
66598;DHT22;57424;53.128;6.406;2022-07-19T07:36:15;23.90;55.40
66598;DHT22;57424;53.128;6.406;2022-07-19T07:38:40;23.90;55.50
66598;DHT22;57424;53.128;6.406;2022-07-19T07:41:07;23.90;55.60
66598;DHT22;57424;53.128;6.406;2022-07-19T07:43:32;23.90;55.50
66598;DHT22;57424;53.128;6.406;2022-07-19T07:45:58;23.90;55.50
66598;DHT22;57424;53.128;6.406;2022-07-19T07:48:24;24.00;55.50
66598;DHT22;57424;53.128;6.406;2022-07-19T07:50:49;24.00;55.40
66598;DHT22;57424;53.128;6.406;2022-07-19T07:53:15;24.00;55.30
66598;DHT22;57424;53.128;6.406;2022-07-19T07:55:41;24.00;55.30
66598;DHT22;57424;53.128;6.406;2022-07-19T07:58:11;24.00;55.30
66598;DHT22;57424;53.128;6.406;2022-07-19T08:00:38;24.00;55.30
66598;DHT22;57424;53.128;6.406;2022-07-19T08:03:04;24.00;55.20
66598;DHT22;57424;53.128;6.406;2022-07-19T08:05:31;24.00;55.20
66598;DHT22;57424;53.128;6.406;2022-07-19T08:07:57;24.10;55.20
66598;DHT22;57424;53.128;6.406;2022-07-19T08:10:24;24.10;55.20
66598;DHT22;57424;53.128;6.406;2022-07-19T08:12:51;24.10;55.10
66598;DHT22;57424;53.128;6.406;2022-07-19T08:15:16;24.10;55.10
66598;DHT22;57424;53.128;6.406;2022-07-19T08:17:42;24.10;55.70
66598;DHT22;57424;53.128;6.406;2022-07-19T08:20:08;24.10;55.00
66598;DHT22;57424;53.128;6.406;2022-07-19T08:22:34;24.10;55.00
66598;DHT22;57424;53.128;6.406;2022-07-19T08:24:59;24.20;55.00
66598;DHT22;57424;53.128;6.406;2022-07-19T08:27:25;24.20;55.00
66598;DHT22;57424;53.128;6.406;2022-07-19T08:29:50;24.20;54.90
66598;DHT22;57424;53.128;6.406;2022-07-19T08:32:16;24.20;54.90
66598;DHT22;57424;53.128;6.406;2022-07-19T08:34:42;24.20;54.90
66598;DHT22;57424;53.128;6.406;2022-07-19T08:37:07;24.30;54.90
66598;DHT22;57424;53.128;6.406;2022-07-19T08:39:33;24.30;54.80
66598;DHT22;57424;53.128;6.406;2022-07-19T08:41:58;24.30;54.80
66598;DHT22;57424;53.128;6.406;2022-07-19T08:44:25;24.30;54.70
66598;DHT22;57424;53.128;6.406;2022-07-19T08:46:51;24.30;54.70
66598;DHT22;57424;53.128;6.406;2022-07-19T08:49:17;24.30;54.60
66598;DHT22;57424;53.128;6.406;2022-07-19T08:51:43;24.30;54.60
66598;DHT22;57424;53.128;6.406;2022-07-19T08:54:09;24.30;54.60
66598;DHT22;57424;53.128;6.406;2022-07-19T08:56:35;24.30;54.70
66598;DHT22;57424;53.128;6.406;2022-07-19T08:59:22;24.40;54.60
66598;DHT22;57424;53.128;6.406;2022-07-19T09:01:48;24.40;54.60
66598;DHT22;57424;53.128;6.406;2022-07-19T09:06:52;24.40;54.50
66598;DHT22;57424;53.128;6.406;2022-07-19T09:09:21;24.40;54.50
66598;DHT22;57424;53.128;6.406;2022-07-19T09:11:48;24.40;54.50
66598;DHT22;57424;53.128;6.406;2022-07-19T09:14:15;24.40;54.60
66598;DHT22;57424;53.128;6.406;2022-07-19T09:19:19;24.40;54.60
66598;DHT22;57424;53.128;6.406;2022-07-19T09:21:59;24.40;54.50
66598;DHT22;57424;53.128;6.406;2022-07-19T09:24:26;24.40;54.50
66598;DHT22;57424;53.128;6.406;2022-07-19T09:29:24;24.40;54.50
66598;DHT22;57424;53.128;6.406;2022-07-19T09:32:00;24.40;54.60
66598;DHT22;57424;53.128;6.406;2022-07-19T09:34:27;24.50;54.50
66598;DHT22;57424;53.128;6.406;2022-07-19T09:37:14;24.40;55.20
66598;DHT22;57424;53.128;6.406;2022-07-19T09:39:41;24.50;54.40
66598;DHT22;57424;53.128;6.406;2022-07-19T09:42:11;24.50;54.50
66598;DHT22;57424;53.128;6.406;2022-07-19T09:44:37;24.50;54.40
66598;DHT22;57424;53.128;6.406;2022-07-19T09:47:03;24.50;54.40
66598;DHT22;57424;53.128;6.406;2022-07-19T09:49:29;24.50;54.30
66598;DHT22;57424;53.128;6.406;2022-07-19T09:51:56;24.50;54.30
66598;DHT22;57424;53.128;6.406;2022-07-19T09:54:24;24.50;54.30
66598;DHT22;57424;53.128;6.406;2022-07-19T09:56:51;24.50;54.30
66598;DHT22;57424;53.128;6.406;2022-07-19T09:59:17;24.50;54.30
66598;DHT22;57424;53.128;6.406;2022-07-19T10:01:44;24.50;54.20
66598;DHT22;57424;53.128;6.406;2022-07-19T10:04:16;24.50;54.10
66598;DHT22;57424;53.128;6.406;2022-07-19T10:06:43;24.50;54.10
66598;DHT22;57424;53.128;6.406;2022-07-19T10:09:11;24.50;54.10
66598;DHT22;57424;53.128;6.406;2022-07-19T10:11:37;24.50;54.00
66598;DHT22;57424;53.128;6.406;2022-07-19T10:14:03;24.50;54.00
66598;DHT22;57424;53.128;6.406;2022-07-19T10:16:44;24.50;54.00
66598;DHT22;57424;53.128;6.406;2022-07-19T10:22:19;24.50;53.80
66598;DHT22;57424;53.128;6.406;2022-07-19T10:27:42;24.50;53.80
66598;DHT22;57424;53.128;6.406;2022-07-19T10:32:45;24.60;53.80
66598;DHT22;57424;53.128;6.406;2022-07-19T10:35:18;24.60;53.80
66598;DHT22;57424;53.128;6.406;2022-07-19T10:37:46;24.60;53.70
66598;DHT22;57424;53.128;6.406;2022-07-19T10:40:12;24.60;53.60
66598;DHT22;57424;53.128;6.406;2022-07-19T10:45:29;24.60;53.60
66598;DHT22;57424;53.128;6.406;2022-07-19T10:50:23;24.60;53.50
66598;DHT22;57424;53.128;6.406;2022-07-19T10:53:06;24.70;53.60
66598;DHT22;57424;53.128;6.406;2022-07-19T10:55:31;24.70;53.50
66598;DHT22;57424;53.128;6.406;2022-07-19T11:00:52;24.70;53.40
66598;DHT22;57424;53.128;6.406;2022-07-19T11:05:57;24.70;53.40
66598;DHT22;57424;53.128;6.406;2022-07-19T11:08:42;24.70;53.40
66598;DHT22;57424;53.128;6.406;2022-07-19T11:11:10;24.70;53.40
66598;DHT22;57424;53.128;6.406;2022-07-19T11:13:36;24.70;53.40
66598;DHT22;57424;53.128;6.406;2022-07-19T11:16:02;24.70;53.30
66598;DHT22;57424;53.128;6.406;2022-07-19T11:18:29;24.70;53.30
66598;DHT22;57424;53.128;6.406;2022-07-19T11:20:59;24.70;53.20
66598;DHT22;57424;53.128;6.406;2022-07-19T11:23:31;24.70;53.20
66598;DHT22;57424;53.128;6.406;2022-07-19T11:26:12;24.70;53.10
66598;DHT22;57424;53.128;6.406;2022-07-19T11:28:39;24.70;53.00
66598;DHT22;57424;53.128;6.406;2022-07-19T11:31:20;24.70;53.00
66598;DHT22;57424;53.128;6.406;2022-07-19T11:33:47;24.70;52.90
66598;DHT22;57424;53.128;6.406;2022-07-19T11:36:15;24.80;53.00
66598;DHT22;57424;53.128;6.406;2022-07-19T11:38:49;24.70;52.90
66598;DHT22;57424;53.128;6.406;2022-07-19T11:46:39;24.80;53.00
66598;DHT22;57424;53.128;6.406;2022-07-19T11:49:10;24.80;52.90
66598;DHT22;57424;53.128;6.406;2022-07-19T11:51:37;24.80;52.90
66598;DHT22;57424;53.128;6.406;2022-07-19T11:54:04;24.80;52.80
66598;DHT22;57424;53.128;6.406;2022-07-19T11:56:31;24.80;52.80
66598;DHT22;57424;53.128;6.406;2022-07-19T11:58:59;24.80;52.90
66598;DHT22;57424;53.128;6.406;2022-07-19T12:01:33;24.80;52.90
66598;DHT22;57424;53.128;6.406;2022-07-19T12:04:02;24.80;52.80
66598;DHT22;57424;53.128;6.406;2022-07-19T12:06:39;24.80;52.80
66598;DHT22;57424;53.128;6.406;2022-07-19T12:09:09;24.80;52.80
66598;DHT22;57424;53.128;6.406;2022-07-19T12:11:52;24.80;52.70
66598;DHT22;57424;53.128;6.406;2022-07-19T12:17:08;24.80;52.70
66598;DHT22;57424;53.128;6.406;2022-07-19T12:19:34;24.90;52.70
66598;DHT22;57424;53.128;6.406;2022-07-19T12:22:00;24.90;52.70
66598;DHT22;57424;53.128;6.406;2022-07-19T12:24:27;24.90;52.70
66598;DHT22;57424;53.128;6.406;2022-07-19T12:27:05;24.90;52.70
66598;DHT22;57424;53.128;6.406;2022-07-19T12:29:32;24.90;52.60
66598;DHT22;57424;53.128;6.406;2022-07-19T12:32:07;24.90;52.70
66598;DHT22;57424;53.128;6.406;2022-07-19T12:34:54;24.90;52.70
66598;DHT22;57424;53.128;6.406;2022-07-19T12:37:24;24.90;52.70
66598;DHT22;57424;53.128;6.406;2022-07-19T12:42:46;24.90;52.70
66598;DHT22;57424;53.128;6.406;2022-07-19T12:45:22;24.90;52.70
66598;DHT22;57424;53.128;6.406;2022-07-19T12:47:50;25.00;52.70
66598;DHT22;57424;53.128;6.406;2022-07-19T12:50:23;25.00;52.70
66598;DHT22;57424;53.128;6.406;2022-07-19T12:52:50;25.00;52.60
66598;DHT22;57424;53.128;6.406;2022-07-19T12:55:16;25.00;52.60
66598;DHT22;57424;53.128;6.406;2022-07-19T12:57:42;25.00;52.60
66598;DHT22;57424;53.128;6.406;2022-07-19T13:00:08;25.00;52.60
66598;DHT22;57424;53.128;6.406;2022-07-19T13:02:34;25.00;52.60
66598;DHT22;57424;53.128;6.406;2022-07-19T13:04:59;25.00;52.60
66598;DHT22;57424;53.128;6.406;2022-07-19T13:07:25;25.00;52.60
66598;DHT22;57424;53.128;6.406;2022-07-19T13:09:50;25.00;52.60
66598;DHT22;57424;53.128;6.406;2022-07-19T13:12:16;25.10;52.70
66598;DHT22;57424;53.128;6.406;2022-07-19T13:14:42;25.10;52.70
66598;DHT22;57424;53.128;6.406;2022-07-19T13:17:08;25.10;52.70
66598;DHT22;57424;53.128;6.406;2022-07-19T13:19:38;25.10;52.70
66598;DHT22;57424;53.128;6.406;2022-07-19T13:22:04;25.10;52.70
66598;DHT22;57424;53.128;6.406;2022-07-19T13:24:31;25.10;52.70
66598;DHT22;57424;53.128;6.406;2022-07-19T13:26:56;25.10;52.70
66598;DHT22;57424;53.128;6.406;2022-07-19T13:29:22;25.10;52.70
66598;DHT22;57424;53.128;6.406;2022-07-19T13:31:48;25.20;52.70
66598;DHT22;57424;53.128;6.406;2022-07-19T13:34:14;25.20;52.70
66598;DHT22;57424;53.128;6.406;2022-07-19T13:36:40;25.20;52.70
66598;DHT22;57424;53.128;6.406;2022-07-19T13:39:06;25.20;52.70
66598;DHT22;57424;53.128;6.406;2022-07-19T13:41:34;25.20;52.70
66598;DHT22;57424;53.128;6.406;2022-07-19T13:44:00;25.20;52.70
66598;DHT22;57424;53.128;6.406;2022-07-19T13:46:26;25.20;52.70
66598;DHT22;57424;53.128;6.406;2022-07-19T13:48:51;25.20;52.70
66598;DHT22;57424;53.128;6.406;2022-07-19T13:51:17;25.30;52.70
66598;DHT22;57424;53.128;6.406;2022-07-19T13:53:42;25.20;52.60
66598;DHT22;57424;53.128;6.406;2022-07-19T13:56:08;25.30;52.70
66598;DHT22;57424;53.128;6.406;2022-07-19T13:58:34;25.30;52.70
66598;DHT22;57424;53.128;6.406;2022-07-19T14:01:00;25.30;52.70
66598;DHT22;57424;53.128;6.406;2022-07-19T14:03:26;25.30;52.70
66598;DHT22;57424;53.128;6.406;2022-07-19T14:05:51;25.30;52.60
66598;DHT22;57424;53.128;6.406;2022-07-19T14:08:17;25.30;52.70
66598;DHT22;57424;53.128;6.406;2022-07-19T14:10:42;25.30;52.70
66598;DHT22;57424;53.128;6.406;2022-07-19T14:13:08;25.30;52.70
66598;DHT22;57424;53.128;6.406;2022-07-19T14:15:34;25.40;52.70
66598;DHT22;57424;53.128;6.406;2022-07-19T14:18:00;25.30;52.60
66598;DHT22;57424;53.128;6.406;2022-07-19T14:20:26;25.40;52.70
66598;DHT22;57424;53.128;6.406;2022-07-19T14:22:52;25.30;52.60
66598;DHT22;57424;53.128;6.406;2022-07-19T14:25:18;25.40;52.70
66598;DHT22;57424;53.128;6.406;2022-07-19T14:27:44;25.40;52.70
66598;DHT22;57424;53.128;6.406;2022-07-19T14:30:10;25.40;52.60
66598;DHT22;57424;53.128;6.406;2022-07-19T14:32:36;25.40;52.70
66598;DHT22;57424;53.128;6.406;2022-07-19T14:35:01;25.40;52.60
66598;DHT22;57424;53.128;6.406;2022-07-19T14:37:28;25.50;52.70
66598;DHT22;57424;53.128;6.406;2022-07-19T14:39:54;25.50;52.70
66598;DHT22;57424;53.128;6.406;2022-07-19T14:42:19;25.50;52.60
66598;DHT22;57424;53.128;6.406;2022-07-19T14:44:45;25.50;52.60
66598;DHT22;57424;53.128;6.406;2022-07-19T14:47:10;25.50;52.60
66598;DHT22;57424;53.128;6.406;2022-07-19T14:49:37;25.50;52.60
66598;DHT22;57424;53.128;6.406;2022-07-19T14:52:03;25.50;52.60
66598;DHT22;57424;53.128;6.406;2022-07-19T14:54:29;25.50;52.60
66598;DHT22;57424;53.128;6.406;2022-07-19T14:56:55;25.50;52.60
66598;DHT22;57424;53.128;6.406;2022-07-19T14:59:22;25.50;52.60
66598;DHT22;57424;53.128;6.406;2022-07-19T15:01:48;25.60;52.70
66598;DHT22;57424;53.128;6.406;2022-07-19T15:04:14;25.60;52.70
66598;DHT22;57424;53.128;6.406;2022-07-19T15:06:40;25.50;52.60
66598;DHT22;57424;53.128;6.406;2022-07-19T15:09:05;25.60;52.70
66598;DHT22;57424;53.128;6.406;2022-07-19T15:11:32;25.60;52.70
66598;DHT22;57424;53.128;6.406;2022-07-19T15:13:59;25.60;52.70
66598;DHT22;57424;53.128;6.406;2022-07-19T15:16:25;25.70;52.80
66598;DHT22;57424;53.128;6.406;2022-07-19T15:18:50;25.60;52.70
66598;DHT22;57424;53.128;6.406;2022-07-19T15:21:16;25.70;52.80
66598;DHT22;57424;53.128;6.406;2022-07-19T15:23:41;25.70;52.90
66598;DHT22;57424;53.128;6.406;2022-07-19T15:26:08;25.70;53.10
66598;DHT22;57424;53.128;6.406;2022-07-19T15:28:33;25.70;53.10
66598;DHT22;57424;53.128;6.406;2022-07-19T15:30:59;25.70;53.10
66598;DHT22;57424;53.128;6.406;2022-07-19T15:33:25;25.70;53.10
66598;DHT22;57424;53.128;6.406;2022-07-19T15:35:50;25.70;53.20
66598;DHT22;57424;53.128;6.406;2022-07-19T15:38:16;25.70;53.20
66598;DHT22;57424;53.128;6.406;2022-07-19T15:40:41;25.70;53.20
66598;DHT22;57424;53.128;6.406;2022-07-19T15:43:07;25.70;53.30
66598;DHT22;57424;53.128;6.406;2022-07-19T15:45:32;25.70;53.30
66598;DHT22;57424;53.128;6.406;2022-07-19T15:47:58;25.70;53.30
66598;DHT22;57424;53.128;6.406;2022-07-19T15:50:23;25.80;53.30
66598;DHT22;57424;53.128;6.406;2022-07-19T15:52:49;25.80;53.40
66598;DHT22;57424;53.128;6.406;2022-07-19T15:55:15;25.80;53.40
66598;DHT22;57424;53.128;6.406;2022-07-19T15:57:41;25.80;53.40
66598;DHT22;57424;53.128;6.406;2022-07-19T16:00:09;25.80;53.40
66598;DHT22;57424;53.128;6.406;2022-07-19T16:02:36;25.80;53.40
66598;DHT22;57424;53.128;6.406;2022-07-19T16:05:04;25.80;53.60